This is the latest recevied weather packets stored in our database for station/object KV9E. If no packets are shown the sender has not sent any weather packets the latest 10 day(s).
| Time | Temp. | Humidity | Pressure | Rain* | Wind** | Luminosity | Snow |
|---|---|---|---|---|---|---|---|
| 1778349366 | 18.33° C | 72% | 1011 hPa | 0 mm | - | 784 W/m² | - |
| 1778349063 | 18.33° C | 74% | 1010.6 hPa | 0 mm | - | 822 W/m² | - |
| 1778348754 | 18.33° C | 75% | 1010.6 hPa | 0 mm | - | 181 W/m² | - |
| 1778348449 | 18.89° C | 73% | 1010.6 hPa | 0 mm | - | 164 W/m² | - |
| 1778348144 | 19.44° C | 71% | 1010.8 hPa | 0 mm | - | 548 W/m² | - |
| 1778347841 | 18.33° C | 76% | 1010.8 hPa | 0 mm | - | 785 W/m² | - |
| 1778347538 | 17.78° C | 77% | 1011.1 hPa | 0 mm | - | 750 W/m² | - |
| 1778347233 | 17.78° C | 75% | 1010.9 hPa | 0 mm | - | 182 W/m² | - |
| 1778346930 | 17.22° C | 77% | 1010.9 hPa | 0 mm | - | 241 W/m² | - |
| 1778346626 | 17.78° C | 77% | 1011.1 hPa | 0 mm | - | 767 W/m² | - |
| 1778346322 | 17.78° C | 75% | 1011 hPa | 0 mm | - | 191 W/m² | - |
| 1778346018 | 17.78° C | 78% | 1011.2 hPa | 0 mm | - | 825 W/m² | - |
| 1778345716 | 17.78° C | 80% | 1011.1 hPa | 0 mm | - | 185 W/m² | - |
| 1778345406 | 16.67° C | 80% | 1011.4 hPa | 0 mm | - | 227 W/m² | - |
| 1778345103 | 16.67° C | 81% | 1011.6 hPa | 0 mm | - | 154 W/m² | - |
| 1778344798 | 17.78° C | 80% | 1011.6 hPa | 0 mm | - | 183 W/m² | - |
| 1778344496 | 17.22° C | 82% | 1011.6 hPa | 0 mm | - | 549 W/m² | - |
| 1778344195 | 16.67° C | 83% | 1011.4 hPa | 0 mm | - | 743 W/m² | - |
| 1778343894 | 16.11° C | 85% | 1011.3 hPa | 0 mm | - | 710 W/m² | - |
| 1778343589 | 16.11° C | 84% | 1011.6 hPa | 0 mm | - | 119 W/m² | - |
| 1778343286 | 16.11° C | 85% | 1011.3 hPa | 0 mm | - | 176 W/m² | - |
| 1778342981 | 16.11° C | 83% | 1011.6 hPa | 0 mm | - | 185 W/m² | - |
| 1778342677 | 16.11° C | 84% | 1011.4 hPa | 0 mm | - | 140 W/m² | - |
| 1778342372 | 16.67° C | 82% | 1011.3 hPa | 0 mm | - | 221 W/m² | - |
| 1778342070 | 16.67° C | 84% | 1011.1 hPa | 0 mm | - | 159 W/m² | - |
* Rain latest hour (hover to see other rain measurements)
** Current wind speed in m/s (hover to see current wind gust speed)